Time;durP1;ratioP1;P1;durP2;ratioP2;P2;SDS_P1;SDS_P2;PMS_P1;PMS_P2;Temp;Humidity;BMP_temperature;BMP_pressure;BME280_temperature;BME280_humidity;BME280_pressure;Samples;Min_cycle;Max_cycle;Signal;HPM_P1;HPM_P2
2023/09/20 00:02:12;;;;;;;6.88;2.10;;;;;;;16.29;100.00;100728.56;4902223;29;20091;-93
2023/09/20 00:04:38;;;;;;;6.05;2.22;;;;;;;16.22;100.00;100727.94;4901799;29;20521;-93
2023/09/20 00:07:08;;;;;;;3.87;1.80;;;;;;;16.18;100.00;100733.13;4886593;29;20037;-93
2023/09/20 00:09:34;;;;;;;9.00;2.25;;;;;;;16.11;100.00;100725.09;4886413;29;20102;-93
2023/09/20 00:12:00;;;;;;;10.48;2.05;;;;;;;16.05;100.00;100728.84;4900869;29;20036;-92
2023/09/20 00:14:31;;;;;;;11.17;1.97;;;;;;;16.03;100.00;100733.72;4901689;29;20054;-93
2023/09/20 00:17:04;;;;;;;8.63;2.17;;;;;;;15.98;100.00;100722.75;4901779;29;20494;-93
2023/09/20 00:19:39;;;;;;;7.25;1.80;;;;;;;15.93;100.00;100725.44;4886095;29;20042;-93
2023/09/20 00:22:05;;;;;;;8.43;2.05;;;;;;;15.89;100.00;100727.00;4901637;29;20544;-93
2023/09/20 00:24:35;;;;;;;7.90;2.00;;;;;;;15.87;100.00;100726.41;4901368;29;20060;-93
2023/09/20 00:27:03;;;;;;;8.30;1.90;;;;;;;15.87;100.00;100730.00;4870938;29;20043;-93
2023/09/20 00:29:31;;;;;;;6.95;2.53;;;;;;;15.90;100.00;100724.00;4901222;29;20032;-92
2023/09/20 00:31:59;;;;;;;8.68;2.08;;;;;;;15.89;100.00;100716.88;4885532;29;20060;-93
2023/09/20 00:34:34;;;;;;;9.20;2.17;;;;;;;15.87;100.00;100720.94;4885343;29;20044;-92
2023/09/20 00:37:05;;;;;;;6.45;2.00;;;;;;;15.85;100.00;100715.72;4886587;29;20044;-92
2023/09/20 00:39:41;;;;;;;;;;;;;;;;;;;;;
2023/09/20 00:42:14;;;;;;;7.60;2.00;;;;;;;15.82;100.00;100716.25;4918195;29;20040;-93
2023/09/20 00:44:42;;;;;;;11.05;2.22;;;;;;;15.83;100.00;100715.16;4919013;29;20067;-92
2023/09/20 00:47:12;;;;;;;11.07;1.90;;;;;;;15.81;100.00;100713.75;4886250;29;20051;-93
2023/09/20 00:49:38;;;;;;;6.80;1.92;;;;;;;15.79;100.00;100712.09;4901198;29;20044;-93
2023/09/20 00:52:12;;;;;;;9.23;1.80;;;;;;;15.90;100.00;100714.97;4901053;29;20044;-92
2023/09/20 00:54:43;;;;;;;8.50;1.88;;;;;;;15.94;100.00;100711.50;4886449;29;20028;-93
2023/09/20 00:57:14;;;;;;;7.07;1.90;;;;;;;15.96;100.00;100712.06;4900430;29;20087;-93
2023/09/20 00:59:41;;;;;;;8.13;1.80;;;;;;;15.97;100.00;100704.66;4901245;29;20597;-92
2023/09/20 01:02:19;;;;;;;6.35;1.92;;;;;;;15.95;100.00;100715.84;4900637;29;20039;-92
2023/09/20 01:04:48;;;;;;;4.50;1.80;;;;;;;15.92;100.00;100721.03;4886422;29;20032;-93
2023/09/20 01:07:16;;;;;;;3.85;1.63;;;;;;;15.92;100.00;100716.38;4917860;29;20107;-92
2023/09/20 01:09:42;;;;;;;6.87;2.00;;;;;;;15.91;100.00;100722.09;4900987;29;20029;-93
2023/09/20 01:12:07;;;;;;;9.15;2.20;;;;;;;15.89;100.00;100718.81;4900945;29;20032;-92
2023/09/20 01:14:33;;;;;;;5.87;1.63;;;;;;;15.91;100.00;100727.56;4900469;29;20409;-91
2023/09/20 01:16:58;;;;;;;4.37;1.57;;;;;;;15.93;100.00;100715.28;4900651;29;20020;-93
2023/09/20 01:19:24;;;;;;;8.68;2.10;;;;;;;15.93;100.00;100709.00;4900668;29;20036;-92
2023/09/20 01:21:49;;;;;;;8.40;2.10;;;;;;;15.93;100.00;100700.81;4901076;29;20039;-92
2023/09/20 01:24:22;;;;;;;8.13;1.83;;;;;;;15.91;100.00;100705.69;4904255;29;20024;-92
2023/09/20 01:26:55;;;;;;;8.07;1.97;;;;;;;15.97;100.00;100707.41;4904382;29;20767;-92
2023/09/20 01:29:23;;;;;;;5.63;2.00;;;;;;;15.94;100.00;100702.44;4904476;29;20110;-92
2023/09/20 01:31:51;;;;;;;5.13;1.77;;;;;;;15.92;100.00;100693.66;4921339;29;20087;-93
2023/09/20 01:34:19;;;;;;;9.43;2.08;;;;;;;15.89;100.00;100695.00;4904559;29;20124;-92
2023/09/20 01:36:53;;;;;;;5.57;2.05;;;;;;;15.93;100.00;100687.13;4904528;29;20043;-92
2023/09/20 01:39:18;;;;;;;8.43;2.07;;;;;;;15.95;100.00;100688.50;4889234;29;20481;-92
2023/09/20 01:41:46;;;;;;;5.45;1.85;;;;;;;15.97;100.00;100688.25;4904473;29;20024;-93
2023/09/20 01:44:12;;;;;;;6.72;2.00;;;;;;;15.94;100.00;100680.53;4904432;29;20039;-92
2023/09/20 01:46:37;;;;;;;4.60;2.03;;;;;;;15.97;100.00;100688.25;4904274;29;20032;-93
2023/09/20 01:49:06;;;;;;;9.87;2.00;;;;;;;16.01;100.00;100688.56;4906203;29;20047;-93
2023/09/20 01:51:38;;;;;;;6.68;2.15;;;;;;;16.07;100.00;100671.13;4939862;29;20067;-93
2023/09/20 01:54:07;;;;;;;6.00;1.90;;;;;;;16.16;100.00;100669.56;4923022;29;20032;-93
2023/09/20 01:56:35;;;;;;;7.63;1.77;;;;;;;16.19;100.00;100671.78;4922772;29;20028;-93
2023/09/20 01:59:00;;;;;;;11.50;2.05;;;;;;;16.26;100.00;100674.34;4922871;29;20063;-93
2023/09/20 02:01:31;;;;;;;8.43;1.93;;;;;;;16.31;100.00;100679.84;4923077;29;20036;-92
2023/09/20 02:03:58;;;;;;;6.30;2.00;;;;;;;16.36;100.00;100663.50;4907739;29;20042;-92
2023/09/20 02:06:23;;;;;;;8.73;2.20;;;;;;;16.40;100.00;100670.13;4922987;29;20087;-93
2023/09/20 02:08:51;;;;;;;7.37;2.30;;;;;;;16.47;100.00;100659.75;4923056;29;20019;-93
2023/09/20 02:11:20;;;;;;;9.48;1.88;;;;;;;16.50;100.00;100655.69;4922931;29;20114;-93
2023/09/20 02:13:45;;;;;;;4.97;2.00;;;;;;;16.52;100.00;100653.53;4922631;29;20171;-93
2023/09/20 02:16:11;;;;;;;8.37;1.60;;;;;;;16.56;100.00;100654.63;4922755;29;20079;-93
2023/09/20 02:18:39;;;;;;;7.13;1.90;;;;;;;16.61;100.00;100656.63;4922559;29;20027;-93
2023/09/20 02:21:06;;;;;;;7.70;2.43;;;;;;;16.62;100.00;100652.78;4906990;29;20039;-93
2023/09/20 02:23:34;;;;;;;10.98;1.73;;;;;;;16.63;100.00;100655.25;4922500;29;20039;-93
2023/09/20 02:26:02;;;;;;;7.65;2.30;;;;;;;16.66;100.00;100648.44;4922270;29;20054;-93
2023/09/20 02:28:31;;;;;;;11.98;2.40;;;;;;;16.66;100.00;100635.56;4906633;29;20043;-93
2023/09/20 02:31:02;;;;;;;7.32;2.20;;;;;;;16.69;100.00;100636.94;4906794;29;20040;-93
2023/09/20 02:33:33;;;;;;;4.23;1.77;;;;;;;16.67;100.00;100636.41;4921532;29;20058;-92
2023/09/20 02:36:01;;;;;;;8.43;2.22;;;;;;;16.66;100.00;100645.69;4922603;29;20051;-93
2023/09/20 02:38:29;;;;;;;7.72;2.05;;;;;;;16.64;100.00;100635.00;4922760;29;20038;-93
2023/09/20 02:40:58;;;;;;;5.50;1.85;;;;;;;16.67;100.00;100644.63;4906747;29;20039;-92
2023/09/20 02:43:26;;;;;;;6.40;2.00;;;;;;;16.70;100.00;100640.50;4922478;29;20035;-93
2023/09/20 02:46:09;;;;;;;;;;;;;;;;;;;;;
2023/09/20 02:48:35;;;;;;;7.68;1.73;;;;;;;16.63;100.00;100630.59;4939084;29;20139;-92
2023/09/20 02:51:01;;;;;;;5.15;1.80;;;;;;;16.57;100.00;100633.56;4921751;29;20126;-93
2023/09/20 02:53:37;;;;;;;7.77;2.07;;;;;;;16.55;100.00;100624.78;4905664;29;20036;-93
2023/09/20 02:56:08;;;;;;;8.05;2.55;;;;;;;16.49;100.00;100626.66;4907249;29;20589;-93
2023/09/20 02:58:36;;;;;;;8.05;1.92;;;;;;;16.42;100.00;100626.88;4938961;29;20032;-93
2023/09/20 03:01:08;;;;;;;7.22;1.98;;;;;;;16.35;100.00;100615.28;4921790;29;20046;-92
2023/09/20 03:03:46;;;;;;;7.07;1.87;;;;;;;16.34;100.00;100613.63;4921991;29;20032;-93
2023/09/20 03:06:14;;;;;;;4.57;2.00;;;;;;;16.30;100.00;100612.53;4921878;29;20055;-92
2023/09/20 03:08:44;;;;;;;6.57;2.00;;;;;;;16.28;100.00;100611.94;4938841;29;20027;-92
2023/09/20 03:11:26;;;;;;;5.68;2.10;;;;;;;16.22;100.00;100618.47;4921992;29;20030;-92
2023/09/20 03:13:55;;;;;;;12.00;2.38;;;;;;;16.21;100.00;100614.91;4939788;29;20035;-92
2023/09/20 03:16:22;;;;;;;6.70;2.23;;;;;;;16.14;100.00;100604.16;4907336;29;20044;-92
2023/09/20 03:18:53;;;;;;;8.75;2.17;;;;;;;16.10;100.00;100604.94;4907277;29;20062;-93
2023/09/20 03:21:19;;;;;;;6.95;2.13;;;;;;;16.05;100.00;100600.22;4923824;29;20070;-92
2023/09/20 03:23:44;;;;;;;6.75;2.20;;;;;;;16.01;100.00;100596.34;4923294;29;20435;-92
2023/09/20 03:26:10;;;;;;;9.33;2.40;;;;;;;15.99;100.00;100595.78;4921819;29;20040;-92
2023/09/20 03:28:38;;;;;;;7.20;2.23;;;;;;;15.96;100.00;100597.13;4922476;29;20123;-92
2023/09/20 03:31:11;;;;;;;10.02;2.00;;;;;;;15.87;100.00;100592.38;4921987;29;20039;-92
2023/09/20 03:33:36;;;;;;;6.43;2.15;;;;;;;15.83;100.00;100594.00;4921554;29;20048;-92
2023/09/20 03:36:15;;;;;;;6.23;2.03;;;;;;;15.77;100.00;100593.88;4921746;29;20042;-93
2023/09/20 03:38:40;;;;;;;5.38;2.08;;;;;;;15.71;100.00;100602.31;4922039;29;20035;-93
2023/09/20 03:41:13;;;;;;;7.32;2.15;;;;;;;15.68;100.00;100611.00;4920804;29;20450;-93
2023/09/20 03:43:43;;;;;;;8.82;2.00;;;;;;;15.60;100.00;100609.53;4901983;29;20036;-93
2023/09/20 03:46:16;;;;;;;5.07;2.20;;;;;;;15.57;100.00;100602.66;4918109;29;20040;-93
2023/09/20 03:48:44;;;;;;;9.80;3.03;;;;;;;15.57;100.00;100601.84;4918132;29;20035;-92
2023/09/20 03:51:15;;;;;;;5.70;1.95;;;;;;;15.57;100.00;100597.19;4919104;29;20040;-92
2023/09/20 03:53:47;;;;;;;6.70;2.10;;;;;;;15.49;100.00;100602.31;4918750;29;20091;-93
2023/09/20 03:56:18;;;;;;;5.15;1.85;;;;;;;15.51;100.00;100600.13;4918661;29;20048;-93
2023/09/20 03:58:43;;;;;;;7.73;1.90;;;;;;;15.47;100.00;100604.44;4917762;29;20059;-93
2023/09/20 04:01:16;;;;;;;7.00;2.20;;;;;;;15.40;100.00;100601.91;4917611;29;20055;-92
2023/09/20 04:03:42;;;;;;;9.53;1.67;;;;;;;15.33;100.00;100593.06;4918353;29;20044;-92
2023/09/20 04:06:17;;;;;;;7.05;2.22;;;;;;;15.33;100.00;100591.16;4917392;29;20366;-93
2023/09/20 04:08:42;;;;;;;10.80;2.00;;;;;;;15.29;100.00;100592.75;4917465;29;20064;-93
2023/09/20 04:11:12;;;;;;;5.53;2.53;;;;;;;15.22;100.00;100603.88;4917828;29;20036;-92
2023/09/20 04:13:38;;;;;;;4.70;2.05;;;;;;;15.14;100.00;100607.03;4917925;29;20036;-92
2023/09/20 04:16:09;;;;;;;9.00;2.50;;;;;;;15.12;100.00;100595.53;4917419;29;20503;-92
2023/09/20 04:18:35;;;;;;;6.93;2.40;;;;;;;15.10;100.00;100589.47;4917233;29;20488;-93
2023/09/20 04:21:03;;;;;;;5.70;1.93;;;;;;;15.06;100.00;100583.69;4917269;29;20028;-93
2023/09/20 04:23:33;;;;;;;5.28;1.80;;;;;;;15.06;100.00;100582.88;4902299;29;20035;-93
2023/09/20 04:25:59;;;;;;;10.43;2.28;;;;;;;15.05;100.00;100576.56;4917185;29;20043;-93
2023/09/20 04:28:27;;;;;;;8.97;2.00;;;;;;;15.02;100.00;100584.47;4916769;29;20043;-93
2023/09/20 04:30:56;;;;;;;7.50;2.47;;;;;;;14.96;100.00;100578.09;4917300;29;20040;-93
2023/09/20 04:33:23;;;;;;;7.13;2.33;;;;;;;14.96;100.00;100574.53;4916433;29;20048;-92
2023/09/20 04:35:56;;;;;;;7.57;2.35;;;;;;;14.93;100.00;100566.84;4917043;29;20036;-92
2023/09/20 04:38:24;;;;;;;6.88;2.08;;;;;;;14.86;100.00;100564.28;4916993;29;20028;-93
2023/09/20 04:40:50;;;;;;;9.18;2.72;;;;;;;14.87;100.00;100565.94;4916908;29;20028;-92
2023/09/20 04:43:20;;;;;;;7.47;2.13;;;;;;;14.84;100.00;100558.25;4901212;29;20553;-92
2023/09/20 04:45:45;;;;;;;8.07;2.20;;;;;;;14.83;100.00;100554.69;4916467;29;20040;-92
2023/09/20 04:48:11;;;;;;;6.50;2.00;;;;;;;14.81;100.00;100559.56;4916706;29;20405;-92
2023/09/20 04:50:39;;;;;;;10.10;2.20;;;;;;;14.80;100.00;100570.75;4916994;29;20132;-92
2023/09/20 04:53:04;;;;;;;9.27;2.40;;;;;;;14.75;100.00;100555.13;4916855;29;20047;-92
2023/09/20 04:55:34;;;;;;;10.45;3.03;;;;;;;14.74;100.00;100567.94;4916302;29;20393;-92
2023/09/20 04:58:00;;;;;;;7.38;2.40;;;;;;;14.78;100.00;100560.09;4900887;29;20040;-93
2023/09/20 05:00:37;;;;;;;4.83;1.80;;;;;;;14.78;100.00;100559.22;4917332;29;20036;-92
2023/09/20 05:03:05;;;;;;;7.47;2.45;;;;;;;14.79;100.00;100556.25;4918409;29;20397;-92
2023/09/20 05:05:30;;;;;;;10.32;2.53;;;;;;;14.79;100.00;100555.44;4916808;29;20062;-92
2023/09/20 05:08:01;;;;;;;8.93;2.40;;;;;;;14.78;100.00;100557.34;4916874;29;20469;-92
2023/09/20 05:10:27;;;;;;;5.63;1.90;;;;;;;14.78;100.00;100546.44;4917609;29;20024;-93
2023/09/20 05:12:53;;;;;;;5.53;1.95;;;;;;;14.83;100.00;100548.41;4916336;29;20043;-93
2023/09/20 05:15:23;;;;;;;6.87;2.23;;;;;;;14.81;100.00;100554.13;4917048;29;20030;-94
2023/09/20 05:17:49;;;;;;;6.68;2.05;;;;;;;14.85;100.00;100565.34;4916978;29;20039;-93
2023/09/20 05:20:20;;;;;;;7.70;2.10;;;;;;;14.79;100.00;100556.25;4916480;29;20123;-92
2023/09/20 05:22:48;;;;;;;8.77;2.10;;;;;;;14.79;100.00;100555.44;4916542;29;20032;-92
2023/09/20 05:25:14;;;;;;;9.50;3.22;;;;;;;14.77;100.00;100563.88;4916325;29;20032;-92
2023/09/20 05:27:47;;;;;;;7.38;2.72;;;;;;;14.78;100.00;100565.53;4900570;29;20503;-92
2023/09/20 05:30:13;;;;;;;7.35;3.13;;;;;;;14.82;100.00;100560.41;4901270;29;20123;-92
2023/09/20 05:32:41;;;;;;;12.63;2.90;;;;;;;14.80;100.00;100555.19;4916074;29;20505;-89
2023/09/20 05:35:08;;;;;;;12.35;2.92;;;;;;;14.79;100.00;100558.97;4900338;29;20056;-90
2023/09/20 05:37:38;;;;;;;10.43;2.45;;;;;;;14.77;100.00;100550.22;4916684;29;20048;-91
2023/09/20 05:40:17;;;;;;;7.00;2.50;;;;;;;14.80;100.00;100546.19;4916640;29;20036;-90
2023/09/20 05:42:47;;;;;;;7.50;2.60;;;;;;;14.89;100.00;100550.94;4917144;29;20029;-91
2023/09/20 05:45:16;;;;;;;10.13;2.77;;;;;;;14.90;100.00;100549.06;4918393;29;20036;-91
2023/09/20 05:47:42;;;;;;;7.50;2.38;;;;;;;14.91;100.00;100554.25;4916706;29;20477;-90
2023/09/20 05:50:13;;;;;;;6.57;2.40;;;;;;;14.90;100.00;100544.41;4901752;29;20119;-90
2023/09/20 05:52:45;;;;;;;7.60;2.40;;;;;;;14.94;100.00;100539.28;4915599;29;20083;-89
2023/09/20 05:55:13;;;;;;;7.33;2.23;;;;;;;14.98;100.00;100539.59;4917039;29;20036;-88
2023/09/20 05:57:43;;;;;;;4.60;1.90;;;;;;;15.03;100.00;100535.03;4916847;29;20036;-89
2023/09/20 06:00:22;;;;;;;5.25;2.20;;;;;;;15.05;100.00;100549.25;4916958;29;20040;-89
2023/09/20 06:02:49;;;;;;;6.97;2.35;;;;;;;15.08;100.00;100558.84;4916998;29;20107;-89
2023/09/20 06:05:16;;;;;;;8.65;2.20;;;;;;;15.08;100.00;100551.47;4915942;29;20036;-88
2023/09/20 06:07:41;;;;;;;7.73;1.80;;;;;;;15.12;100.00;100554.53;4916552;29;20043;-87
2023/09/20 06:10:10;;;;;;;10.63;2.42;;;;;;;15.17;100.00;100551.06;4917395;29;20040;-88
2023/09/20 06:12:38;;;;;;;3.92;2.00;;;;;;;15.23;100.00;100533.63;4903471;29;20066;-91
2023/09/20 06:15:07;;;;;;;5.93;2.00;;;;;;;15.33;100.00;100536.50;4918884;29;20362;-88
2023/09/20 06:17:36;;;;;;;8.35;2.00;;;;;;;15.33;100.00;100535.69;4918357;29;20062;-87
2023/09/20 06:20:02;;;;;;;6.03;2.10;;;;;;;15.37;100.00;100525.91;4918328;29;20488;-87
2023/09/20 06:22:28;;;;;;;6.57;2.17;;;;;;;15.41;100.00;100536.06;4919674;29;20107;-87
2023/09/20 06:24:58;;;;;;;6.63;2.00;;;;;;;15.44;100.00;100541.00;4919757;29;20073;-88
2023/09/20 06:27:23;;;;;;;4.17;2.17;;;;;;;15.51;100.00;100527.13;4918356;29;20040;-87
2023/09/20 06:29:49;;;;;;;7.82;1.95;;;;;;;15.53;100.00;100535.91;4919047;29;20035;-87
2023/09/20 06:32:15;;;;;;;7.03;2.13;;;;;;;15.55;100.00;100541.94;4920409;29;20489;-88
2023/09/20 06:34:41;;;;;;;8.68;2.45;;;;;;;15.64;100.00;100534.13;4939004;29;20044;-87
2023/09/20 06:37:11;;;;;;;7.00;1.90;;;;;;;15.70;100.00;100545.94;4921590;29;20080;-88
2023/09/20 06:39:45;;;;;;;8.68;2.30;;;;;;;15.78;100.00;100542.75;4921134;29;20071;-88
2023/09/20 06:42:11;;;;;;;6.80;2.20;;;;;;;15.81;100.00;100538.69;4905663;29;20130;-88
2023/09/20 06:44:44;;;;;;;3.83;1.90;;;;;;;15.89;100.00;100544.53;4905123;29;20147;-89
2023/09/20 06:47:10;;;;;;;6.95;2.28;;;;;;;16.00;100.00;100541.88;4921065;29;20040;-88
2023/09/20 06:49:38;;;;;;;4.30;1.70;;;;;;;16.03;100.00;100542.19;4937976;29;20027;-88
2023/09/20 06:52:06;;;;;;;5.13;1.83;;;;;;;16.07;100.00;100540.59;4938626;29;20028;-89
2023/09/20 06:54:37;;;;;;;7.95;2.10;;;;;;;16.20;100.00;100544.00;4905132;29;20521;-88
2023/09/20 06:57:04;;;;;;;4.17;1.90;;;;;;;16.27;100.00;100539.13;4920675;29;20064;-88
2023/09/20 06:59:33;;;;;;;7.28;2.05;;;;;;;16.31;100.00;100541.09;4921323;29;20118;-88
2023/09/20 07:02:01;;;;;;;5.85;1.75;;;;;;;16.34;100.00;100541.63;4937827;29;20127;-88
2023/09/20 07:04:38;;;;;;;5.97;1.83;;;;;;;16.39;100.00;100542.50;4905117;29;20032;-88
2023/09/20 07:07:10;;;;;;;4.75;1.95;;;;;;;16.41;100.00;100531.28;4921034;29;20063;-88
2023/09/20 07:09:37;;;;;;;4.43;1.73;;;;;;;16.55;100.00;100542.63;4921272;29;20527;-88
2023/09/20 07:12:03;;;;;;;10.98;2.40;;;;;;;16.59;100.00;100547.28;4920554;29;20075;-87
2023/09/20 07:14:34;;;;;;;6.15;2.30;;;;;;;16.62;100.00;100530.38;4938136;29;20031;-87
2023/09/20 07:17:03;;;;;;;7.03;2.00;;;;;;;16.67;100.00;100518.63;4921018;29;20027;-87
2023/09/20 07:19:35;;;;;;;5.68;1.95;;;;;;;16.66;100.00;100531.47;4920312;29;20040;-87
2023/09/20 07:22:01;;;;;;;5.30;1.67;;;;;;;16.72;100.00;100529.59;4920777;29;20071;-86
2023/09/20 07:24:27;;;;;;;5.47;2.08;;;;;;;16.82;100.00;100548.00;4904832;29;20036;-86
2023/09/20 07:26:52;;;;;;;6.23;2.43;;;;;;;16.89;100.00;100525.88;4937612;29;20075;-87
2023/09/20 07:29:18;;;;;;;4.70;1.80;;;;;;;16.94;100.00;100525.91;4938020;29;20358;-87
2023/09/20 07:31:45;;;;;;;5.30;1.90;;;;;;;16.93;100.00;100522.38;4937567;29;20114;-86
2023/09/20 07:34:12;;;;;;;4.07;2.17;;;;;;;17.02;100.00;100541.84;4937329;29;20051;-87
2023/09/20 07:36:43;;;;;;;5.10;2.03;;;;;;;17.08;100.00;100537.22;4920468;29;20382;-90
2023/09/20 07:39:46;;;;;;;4.93;1.90;;;;;;;17.16;100.00;100528.50;4937635;29;20118;-96
2023/09/20 07:42:17;;;;;;;17.30;2.37;;;;;;;17.28;100.00;100540.06;4905556;29;20143;-94
2023/09/20 07:45:06;;;;;;;;;;;;;;;;;;;;;
2023/09/20 07:47:36;;;;;;;3.90;1.80;;;;;;;17.38;100.00;100538.44;4922940;29;20039;-95
2023/09/20 07:50:11;;;;;;;3.72;1.80;;;;;;;17.37;100.00;100532.13;4905957;29;20039;-93
2023/09/20 07:53:30;;;;;;;5.05;2.28;;;;;;;17.40;100.00;100544.50;4861797;29;20037;-95
2023/09/20 07:56:13;;;;;;;5.93;2.13;;;;;;;17.41;100.00;100536.00;4845371;29;20033;-95
2023/09/20 07:58:42;;;;;;;2.83;1.70;;;;;;;17.40;100.00;100526.13;4916002;29;20127;-95
2023/09/20 08:01:30;;;;;;;7.50;1.85;;;;;;;17.50;100.00;100522.59;4920766;29;20384;-94
2023/09/20 08:04:06;;;;;;;7.20;2.50;;;;;;;17.49;100.00;100542.88;4908136;29;20039;-95
2023/09/20 08:07:01;;;;;;;3.95;2.50;;;;;;;17.42;100.00;100539.56;4905632;29;20142;-95
2023/09/20 08:09:51;;;;;;;8.13;2.50;;;;;;;17.44;100.00;100534.66;4921010;29;20024;-94
2023/09/20 08:12:48;;;;;;;7.68;3.17;;;;;;;17.41;100.00;100518.72;4893610;29;20042;-95
2023/09/20 08:15:32;;;;;;;5.65;2.80;;;;;;;17.50;100.00;100539.84;4914887;29;20370;-95
2023/09/20 08:20:47;;;;;;;9.13;2.75;;;;;;;17.57;100.00;100538.78;4924330;29;20075;-95
2023/09/20 09:01:23;;;;;;;6.20;2.30;;;;;;;19.75;95.58;100556.44;4900151;29;20047;-95
2023/09/20 09:04:00;;;;;;;6.60;2.03;;;;;;;19.67;94.29;100557.00;4896967;29;20032;-95
2023/09/20 09:06:29;;;;;;;6.82;2.25;;;;;;;19.46;95.19;100545.28;4899071;29;20040;-95
2023/09/20 09:09:16;;;;;;;4.80;1.90;;;;;;;19.46;96.10;100550.78;4883089;29;20032;-94
2023/09/20 09:12:06;;;;;;;7.28;2.40;;;;;;;19.50;96.58;100543.59;4898392;29;20033;-95
2023/09/20 09:14:45;;;;;;;7.50;2.37;;;;;;;19.40;96.22;100538.97;4885018;29;20039;-95
2023/09/20 09:17:17;;;;;;;7.55;2.17;;;;;;;19.48;95.23;100545.81;4898000;29;20037;-95
2023/09/20 09:20:15;;;;;;;5.78;2.20;;;;;;;19.48;96.02;100548.56;4883809;29;20041;-94
2023/09/20 09:23:27;;;;;;;;;;;;;;;;;;;;;
2023/09/20 09:28:59;;;;;;;3.60;1.87;;;;;;;19.84;93.49;100540.13;4894880;29;20044;-94
2023/09/20 09:32:36;;;;;;;5.90;1.98;;;;;;;20.08;94.54;100545.78;4900766;29;20541;-94
2023/09/20 09:34:57;;;;;;;5.82;2.00;;;;;;;20.28;91.79;100532.94;4899562;29;20041;-94
2023/09/20 09:37:27;;;;;;;3.88;1.90;;;;;;;20.30;90.88;100530.72;4900375;29;20160;-93
2023/09/20 09:40:05;;;;;;;4.97;2.40;;;;;;;20.30;90.53;100537.06;4885750;29;20037;-93
2023/09/20 09:42:34;;;;;;;5.13;1.90;;;;;;;20.31;90.76;100537.88;4899705;29;20029;-93
2023/09/20 09:45:03;;;;;;;3.38;1.70;;;;;;;20.32;89.39;100537.56;4903396;29;20025;-93
2023/09/20 09:47:34;;;;;;;5.57;1.90;;;;;;;20.38;89.96;100545.81;4903467;29;20492;-94
2023/09/20 09:50:06;;;;;;;5.70;1.88;;;;;;;20.37;88.77;100528.44;4887592;29;20044;-94
2023/09/20 09:52:39;;;;;;;4.60;2.03;;;;;;;20.41;89.98;100528.69;4901416;29;20473;-94
2023/09/20 09:55:05;;;;;;;5.03;1.97;;;;;;;20.66;89.35;100522.16;4901272;29;20033;-93
2023/09/20 09:57:40;;;;;;;4.75;2.00;;;;;;;20.77;87.49;100511.84;4900880;29;20064;-93
2023/09/20 10:00:16;;;;;;;4.10;1.95;;;;;;;20.89;87.21;100509.50;4901333;29;20028;-93
2023/09/20 10:02:44;;;;;;;4.68;1.67;;;;;;;21.00;85.62;100515.72;4872074;29;20520;-94
2023/09/20 10:05:24;;;;;;;6.88;2.17;;;;;;;21.06;85.71;100502.69;4901040;29;20048;-94
2023/09/20 10:08:01;;;;;;;5.40;1.93;;;;;;;21.16;84.91;100499.81;4885811;29;20048;-94
2023/09/20 10:10:29;;;;;;;4.82;1.52;;;;;;;21.33;83.05;100496.53;4901339;29;20055;-94
2023/09/20 10:13:08;;;;;;;;;;;;;;;;;;;;;
2023/09/20 10:15:49;;;;;;;3.83;1.98;;;;;;;21.40;83.61;100510.00;4903156;29;20349;-94
2023/09/20 10:18:19;;;;;;;4.55;2.00;;;;;;;21.52;81.84;100511.22;4886169;29;20037;-94
2023/09/20 10:21:17;;;;;;;4.87;1.77;;;;;;;21.64;82.36;100496.16;4900913;29;20028;-95
2023/09/20 10:23:47;;;;;;;5.93;1.50;;;;;;;21.73;79.38;100533.84;4900644;29;20032;-95
2023/09/20 10:26:18;;;;;;;3.55;1.60;;;;;;;21.55;78.95;100513.41;4900522;29;20036;-95
2023/09/20 10:28:50;;;;;;;2.47;1.45;;;;;;;21.69;80.66;100501.63;4900323;29;20028;-94
2023/09/20 10:31:22;;;;;;;6.32;1.70;;;;;;;21.82;77.77;100505.53;4900667;29;20060;-94
2023/09/20 10:33:52;;;;;;;4.07;1.40;;;;;;;21.87;78.90;100498.00;4913037;29;20501;-95
2023/09/20 10:36:22;;;;;;;5.55;1.45;;;;;;;22.19;77.86;100481.75;4919388;29;20130;-95
2023/09/20 10:38:50;;;;;;;7.07;1.50;;;;;;;22.31;75.84;100489.56;4919671;29;20075;-94
2023/09/20 10:41:39;;;;;;;4.82;1.15;;;;;;;22.05;75.49;100520.38;4918949;29;20069;-94
2023/09/20 10:44:07;;;;;;;3.20;1.33;;;;;;;21.79;76.50;100471.09;4919397;29;20028;-94
2023/09/20 10:46:45;;;;;;;5.87;1.33;;;;;;;21.95;77.44;100470.84;4919297;29;20095;-94
2023/09/20 10:49:20;;;;;;;3.08;1.27;;;;;;;22.10;76.70;100458.69;4919201;29;20039;-94
2023/09/20 10:51:54;;;;;;;3.13;1.30;;;;;;;22.14;75.95;100466.06;4919258;29;20060;-94
2023/09/20 10:54:36;;;;;;;4.05;1.30;;;;;;;21.99;76.85;100467.16;4918779;29;20370;-94
2023/09/20 10:57:22;;;;;;;4.75;1.30;;;;;;;22.23;76.93;100461.53;4918425;29;20036;-94
2023/09/20 11:00:01;;;;;;;2.87;1.30;;;;;;;22.45;75.66;100459.22;4919198;29;20035;-95
2023/09/20 11:02:34;;;;;;;6.53;1.15;;;;;;;22.49;74.19;100450.00;4919058;29;20040;-94
2023/09/20 11:05:13;;;;;;;2.83;1.30;;;;;;;22.64;76.33;100461.91;4919019;29;20036;-94
2023/09/20 11:07:44;;;;;;;4.93;1.35;;;;;;;22.80;72.03;100462.44;4918758;29;20032;-94
2023/09/20 11:10:19;;;;;;;2.65;1.42;;;;;;;22.54;71.20;100449.09;4918699;29;20560;-93
2023/09/20 11:13:03;;;;;;;5.33;1.30;;;;;;;22.31;74.36;100448.94;4918650;29;20123;-96
2023/09/20 11:15:36;;;;;;;2.55;1.23;;;;;;;22.41;73.79;100447.94;4917790;29;20042;-95
2023/09/20 11:18:12;;;;;;;3.28;1.25;;;;;;;22.56;73.26;100449.63;4902515;29;20144;-94
2023/09/20 11:20:39;;;;;;;5.45;1.30;;;;;;;22.75;72.13;100457.81;4887629;29;20051;-94
2023/09/20 11:23:10;;;;;;;7.82;1.52;;;;;;;23.28;71.86;100453.69;4918618;29;20067;-95
2023/09/20 11:26:00;;;;;;;;;;;;;;;;;;;;;
2023/09/20 11:28:38;;;;;;;3.38;1.17;;;;;;;23.81;67.95;100461.34;4938781;29;20034;-96
2023/09/20 11:31:06;;;;;;;4.32;1.30;;;;;;;23.62;66.94;100441.28;4904082;29;20123;-96
2023/09/20 11:34:28;;;;;;;5.75;1.50;;;;;;;22.96;70.16;100447.16;4902906;29;20059;-96
2023/09/20 11:36:57;;;;;;;3.97;1.52;;;;;;;22.90;71.06;100460.28;4920205;29;20032;-95
2023/09/20 11:39:41;;;;;;;3.13;1.23;;;;;;;22.74;70.54;100453.41;4920890;29;20130;-95
2023/09/20 11:42:57;;;;;;;6.40;1.50;;;;;;;22.56;72.46;100457.91;4905592;29;20036;-96
2023/09/20 11:46:05;;;;;;;;;;;;;;;;;;;;;
2023/09/20 11:48:56;;;;;;;3.75;1.15;;;;;;;22.16;73.48;100447.28;4842602;29;20035;-96
2023/09/20 11:52:26;;;;;;;;;;;;;;;;;;;;;
2023/09/20 11:55:22;;;;;;;3.43;1.30;;;;;;;22.96;70.89;100458.22;4939472;29;20083;-96
2023/09/20 11:58:00;;;;;;;3.70;1.40;;;;;;;23.08;69.53;100457.69;4876963;29;20032;-94
2023/09/20 12:00:27;;;;;;;5.95;1.70;;;;;;;22.70;70.79;100469.78;4883186;29;20524;-93
2023/09/20 12:03:03;;;;;;;7.13;1.60;;;;;;;22.63;70.10;100455.53;4882053;29;20076;-92
2023/09/20 12:05:38;;;;;;;4.60;1.50;;;;;;;22.56;69.37;100455.97;4884744;29;20466;-92
2023/09/20 12:08:12;;;;;;;4.90;1.20;;;;;;;22.48;70.66;100459.44;4883106;29;20128;-92
2023/09/20 12:10:47;;;;;;;5.28;1.25;;;;;;;22.12;71.40;100467.53;4868003;29;20037;-93
2023/09/20 12:13:13;;;;;;;6.07;1.83;;;;;;;21.89;73.12;100445.22;4882846;29;20084;-92
2023/09/20 12:15:43;;;;;;;4.97;1.50;;;;;;;22.14;72.52;100451.47;4882179;29;20041;-92
2023/09/20 12:18:17;;;;;;;5.15;1.30;;;;;;;22.19;71.70;100446.66;4898179;29;20029;-92
2023/09/20 12:20:48;;;;;;;5.33;1.23;;;;;;;22.04;71.19;100444.16;4898349;29;20119;-91
2023/09/20 12:23:14;;;;;;;7.38;1.30;;;;;;;21.90;72.32;100438.59;4867237;29;20047;-92
2023/09/20 12:25:44;;;;;;;3.17;1.52;;;;;;;22.05;71.13;100445.81;4883059;29;20075;-92
2023/09/20 12:28:15;;;;;;;2.97;1.48;;;;;;;21.83;72.43;100438.97;4882265;29;20033;-92
2023/09/20 12:30:54;;;;;;;3.33;1.30;;;;;;;21.71;73.65;100441.38;4883159;29;20037;-93
2023/09/20 12:33:37;;;;;;;2.53;1.40;;;;;;;22.47;72.62;100443.16;4896813;29;20075;-91
2023/09/20 12:36:23;;;;;;;4.70;1.10;;;;;;;24.15;66.29;100429.47;4866803;29;20132;-93
2023/09/20 12:38:54;;;;;;;9.32;1.75;;;;;;;24.95;63.37;100422.31;4880906;29;20040;-94